Salona — J8B4719 — position and weather

sailwx.info

Track history (hours):
 
Tides and Currents Weather Stations Pressure Air Temp Water Temp Dewpoint Dewpoint Depression Visibility Wind Speed Wind Dir Waves Ship Positions

Salona

Last reported at 2014-Nov-24 20:33 UTC. Time now 2014-Dec-21 14:26 UTC.
Position N 43°17' E 010°08'.
Warning: this ship's position is 26 days out of date.

Length 70 m; draft 3 m.

Type: Cargo ship. MMSI: 376099000.

Date/timePositionNaut miles runAvg speedWind from/ knotsBaromVisibWave heightAir tempDewpointWater temp
2014-Nov-24 20:33N 43°17' E 010°08'8 7.8
2014-Nov-24 19:33N 43°25' E 010°10'7 7.4
2014-Nov-24 18:33N 43°32' E 010°14'3 3.1
2014-Nov-24 17:33N 43°33' E 010°18'0 0.0
2014-Nov-24 16:33N 43°33' E 010°18'0 0.0
2014-Nov-24 15:33N 43°33' E 010°18'0 0.0
2014-Nov-24 14:33N 43°33' E 010°18'0 0.0
2014-Nov-24 13:33N 43°33' E 010°18'0 0.0
2014-Nov-24 12:33N 43°33' E 010°18'0 0.0
2014-Nov-24 11:33N 43°33' E 010°18'0 0.0
2014-Nov-24 10:33N 43°33' E 010°18'0 0.0
2014-Nov-24 09:33N 43°33' E 010°18'0 0.0
2014-Nov-24 08:33N 43°33' E 010°18'0 0.0
2014-Nov-24 07:33N 43°33' E 010°18'0 0.0
2014-Nov-24 06:33N 43°33' E 010°18'0 0.0
2014-Nov-24 05:33N 43°33' E 010°18'0 0.0
2014-Nov-24 04:33N 43°33' E 010°18'0 0.0
2014-Nov-24 03:33N 43°33' E 010°18'0 0.0
2014-Nov-24 02:33N 43°33' E 010°18'0 0.0
2014-Nov-24 01:33N 43°33' E 010°18'0 0.0
2014-Nov-24 00:33N 43°33' E 010°18'0 0.0
2014-Nov-23 23:33N 43°33' E 010°18'0 0.0
2014-Nov-23 22:33N 43°33' E 010°18'0 0.0
2014-Nov-23 21:33N 43°33' E 010°18'0 0.0
2014-Nov-23 20:33N 43°33' E 010°18'0 0.0
2014-Nov-23 19:33N 43°33' E 010°18'0 0.0
2014-Nov-23 18:33N 43°33' E 010°18'0 0.0
2014-Nov-23 17:33N 43°33' E 010°18'0 0.0
2014-Nov-23 16:33N 43°33' E 010°18'0 0.0
2014-Nov-23 15:33N 43°33' E 010°18'0 0.0
2014-Nov-23 14:33N 43°33' E 010°18'0 0.0
2014-Nov-23 13:33N 43°33' E 010°18'0 0.0
2014-Nov-23 12:33N 43°33' E 010°18'0 0.0
2014-Nov-23 11:33N 43°33' E 010°18'0 0.0
2014-Nov-23 10:33N 43°33' E 010°18'0 0.0
2014-Nov-23 09:33N 43°33' E 010°18'0 0.0
2014-Nov-23 08:33N 43°33' E 010°18'0 0.0
2014-Nov-23 07:33N 43°33' E 010°18'0 0.0
2014-Nov-23 06:33N 43°33' E 010°18'0 0.0
2014-Nov-23 05:33N 43°33' E 010°18'0 0.0
2014-Nov-23 04:33N 43°33' E 010°18'0 0.0
2014-Nov-23 03:33N 43°33' E 010°18'0 0.0
2014-Nov-23 02:33N 43°33' E 010°18'0 0.0
2014-Nov-23 01:33N 43°33' E 010°18'0 0.0
2014-Nov-23 00:33N 43°33' E 010°18'0 0.0
2014-Nov-22 23:33N 43°33' E 010°18'0 0.0
2014-Nov-22 22:33N 43°33' E 010°18'0 0.0
2014-Nov-22 21:33N 43°33' E 010°18'0 0.0
2014-Nov-22 20:33N 43°33' E 010°18'0 0.0
2014-Nov-22 19:33N 43°33' E 010°18'0 0.0
2014-Nov-22 18:33N 43°33' E 010°18'0 0.0
2014-Nov-22 17:33N 43°33' E 010°18'0 0.0
2014-Nov-22 16:33N 43°33' E 010°18'0 0.0
2014-Nov-22 15:33N 43°33' E 010°18'0 0.0
2014-Nov-22 14:33N 43°33' E 010°18'0 0.0
2014-Nov-22 13:33N 43°33' E 010°18'0 0.0
2014-Nov-22 12:33N 43°33' E 010°18'0 0.0
2014-Nov-22 11:33N 43°33' E 010°18'0 0.0
2014-Nov-22 10:33N 43°33' E 010°18'0 0.0
2014-Nov-22 09:33N 43°33' E 010°18'0 0.0
2014-Nov-22 08:33N 43°33' E 010°18'3 3.2
2014-Nov-22 07:33N 43°31' E 010°15'3 3.4
2014-Nov-22 06:33N 43°28' E 010°12'9 8.5
2014-Nov-22 05:33N 43°20' E 010°10'  
2014-Nov-17 23:30N 35°50' E 010°41'184 5.6
2014-Nov-16 14:33N 36°33' E 014°23'  
Track history (hours):
 
Tides and Currents Weather Stations Pressure Air Temp Water Temp Dewpoint Dewpoint Depression Visibility Wind Speed Wind Dir Waves Ship Positions

Salona

Last reported at 2014-Nov-24 20:33 UTC. Time now 2014-Dec-21 14:26 UTC.
Position N 43°17' E 010°08'.
Warning: this ship's position is 26 days out of date.

Length 70 m; draft 3 m.

Type: Cargo ship. MMSI: 376099000.

Date/timePositionNaut miles runAvg speedWind from/ knotsBaromVisibWave heightAir tempDewpointWater temp
2014-Nov-24 20:33N 43°17' E 010°08'8 7.8
2014-Nov-24 19:33N 43°25' E 010°10'7 7.4
2014-Nov-24 18:33N 43°32' E 010°14'3 3.1
2014-Nov-24 17:33N 43°33' E 010°18'0 0.0
2014-Nov-24 16:33N 43°33' E 010°18'0 0.0
2014-Nov-24 15:33N 43°33' E 010°18'0 0.0
2014-Nov-24 14:33N 43°33' E 010°18'0 0.0
2014-Nov-24 13:33N 43°33' E 010°18'0 0.0
2014-Nov-24 12:33N 43°33' E 010°18'0 0.0
2014-Nov-24 11:33N 43°33' E 010°18'0 0.0
2014-Nov-24 10:33N 43°33' E 010°18'0 0.0
2014-Nov-24 09:33N 43°33' E 010°18'0 0.0
2014-Nov-24 08:33N 43°33' E 010°18'0 0.0
2014-Nov-24 07:33N 43°33' E 010°18'0 0.0
2014-Nov-24 06:33N 43°33' E 010°18'0 0.0
2014-Nov-24 05:33N 43°33' E 010°18'0 0.0
2014-Nov-24 04:33N 43°33' E 010°18'0 0.0
2014-Nov-24 03:33N 43°33' E 010°18'0 0.0
2014-Nov-24 02:33N 43°33' E 010°18'0 0.0
2014-Nov-24 01:33N 43°33' E 010°18'0 0.0
2014-Nov-24 00:33N 43°33' E 010°18'0 0.0
2014-Nov-23 23:33N 43°33' E 010°18'0 0.0
2014-Nov-23 22:33N 43°33' E 010°18'0 0.0
2014-Nov-23 21:33N 43°33' E 010°18'0 0.0
2014-Nov-23 20:33N 43°33' E 010°18'0 0.0
2014-Nov-23 19:33N 43°33' E 010°18'0 0.0
2014-Nov-23 18:33N 43°33' E 010°18'0 0.0
2014-Nov-23 17:33N 43°33' E 010°18'0 0.0
2014-Nov-23 16:33N 43°33' E 010°18'0 0.0
2014-Nov-23 15:33N 43°33' E 010°18'0 0.0
2014-Nov-23 14:33N 43°33' E 010°18'0 0.0
2014-Nov-23 13:33N 43°33' E 010°18'0 0.0
2014-Nov-23 12:33N 43°33' E 010°18'0 0.0
2014-Nov-23 11:33N 43°33' E 010°18'0 0.0
2014-Nov-23 10:33N 43°33' E 010°18'0 0.0
2014-Nov-23 09:33N 43°33' E 010°18'0 0.0
2014-Nov-23 08:33N 43°33' E 010°18'0 0.0
2014-Nov-23 07:33N 43°33' E 010°18'0 0.0
2014-Nov-23 06:33N 43°33' E 010°18'0 0.0
2014-Nov-23 05:33N 43°33' E 010°18'0 0.0
2014-Nov-23 04:33N 43°33' E 010°18'0 0.0
2014-Nov-23 03:33N 43°33' E 010°18'0 0.0
2014-Nov-23 02:33N 43°33' E 010°18'0 0.0
2014-Nov-23 01:33N 43°33' E 010°18'0 0.0
2014-Nov-23 00:33N 43°33' E 010°18'0 0.0
2014-Nov-22 23:33N 43°33' E 010°18'0 0.0
2014-Nov-22 22:33N 43°33' E 010°18'0 0.0
2014-Nov-22 21:33N 43°33' E 010°18'0 0.0
2014-Nov-22 20:33N 43°33' E 010°18'0 0.0
2014-Nov-22 19:33N 43°33' E 010°18'0 0.0
2014-Nov-22 18:33N 43°33' E 010°18'0 0.0
2014-Nov-22 17:33N 43°33' E 010°18'0 0.0
2014-Nov-22 16:33N 43°33' E 010°18'0 0.0
2014-Nov-22 15:33N 43°33' E 010°18'0 0.0
2014-Nov-22 14:33N 43°33' E 010°18'0 0.0
2014-Nov-22 13:33N 43°33' E 010°18'0 0.0
2014-Nov-22 12:33N 43°33' E 010°18'0 0.0
2014-Nov-22 11:33N 43°33' E 010°18'0 0.0
2014-Nov-22 10:33N 43°33' E 010°18'0 0.0
2014-Nov-22 09:33N 43°33' E 010°18'0 0.0
2014-Nov-22 08:33N 43°33' E 010°18'3 3.2
2014-Nov-22 07:33N 43°31' E 010°15'3 3.4
2014-Nov-22 06:33N 43°28' E 010°12'9 8.5
2014-Nov-22 05:33N 43°20' E 010°10'  
2014-Nov-17 23:30N 35°50' E 010°41'184 5.6
2014-Nov-16 14:33N 36°33' E 014°23'  

Dump ship's entire track history